KOFF

Offutt AFB Airport

Omaha, Nebraska, USA
METAR KOFF 260356Z AUTO 04003KT 10SM CLR 22/18 A2973 RMK AO2 SLP063 T02160178 $
Observed Flight Rules
May-26 @ 03:56 UTC (22 minutes ago) Visual Flight Rules
Wind Visibility Clouds
40° at 3 knots 10 miles
  • Clear skies
Temperatures Readings
Current 22°C / 72°F
Dewpoint 18°C / 64°F
Humidity 78%
Altimeter 29.73" Hg
Pressure 1006.3 hPa
Elevation 319
METAR KOFF 260356Z AUTO 04003KT 10SM CLR 22/18 A2973 RMK AO2 SLP063 T02160178 $
Observed Flight Rules
May-26 @ 03:56 UTC
(22 minutes ago)
VFR
Wind Visibility
40° at 3 knots 10 miles
Clouds
  • Clear skies
Temperature Dewpoint
22°C / 72°F 18°C / 64°F
Humidity Altimeter Pressure
78% 29.73" Hg 1006.3 hPa